sensor_id;sensor_type;location;lat;lon;timestamp;P1;durP1;ratioP1;P2;durP2;ratioP2
24034;SDS011;12242;50.952;4.678;2023-05-10T00:01:53;11.05;;;4.75;;
24034;SDS011;12242;50.952;4.678;2023-05-10T00:04:21;9.27;;;3.88;;
24034;SDS011;12242;50.952;4.678;2023-05-10T00:06:49;7.93;;;3.80;;
24034;SDS011;12242;50.952;4.678;2023-05-10T00:21:53;10.25;;;4.03;;
24034;SDS011;12242;50.952;4.678;2023-05-10T00:24:21;11.63;;;3.58;;
24034;SDS011;12242;50.952;4.678;2023-05-10T00:26:48;7.47;;;3.35;;
24034;SDS011;12242;50.952;4.678;2023-05-10T00:29:16;11.10;;;3.92;;
24034;SDS011;12242;50.952;4.678;2023-05-10T00:31:43;7.18;;;3.47;;
24034;SDS011;12242;50.952;4.678;2023-05-10T00:34:11;10.48;;;3.60;;
24034;SDS011;12242;50.952;4.678;2023-05-10T00:36:57;9.43;;;3.63;;
24034;SDS011;12242;50.952;4.678;2023-05-10T00:39:24;10.98;;;4.13;;
24034;SDS011;12242;50.952;4.678;2023-05-10T00:41:53;9.90;;;3.42;;
24034;SDS011;12242;50.952;4.678;2023-05-10T00:44:21;13.38;;;4.10;;
24034;SDS011;12242;50.952;4.678;2023-05-10T00:46:48;8.30;;;3.45;;
24034;SDS011;12242;50.952;4.678;2023-05-10T00:49:16;11.52;;;4.07;;
24034;SDS011;12242;50.952;4.678;2023-05-10T00:51:44;9.38;;;4.30;;
24034;SDS011;12242;50.952;4.678;2023-05-10T00:54:13;12.05;;;4.30;;
24034;SDS011;12242;50.952;4.678;2023-05-10T00:56:42;9.43;;;3.55;;
24034;SDS011;12242;50.952;4.678;2023-05-10T00:59:16;12.90;;;4.30;;
24034;SDS011;12242;50.952;4.678;2023-05-10T01:01:44;11.50;;;4.68;;
24034;SDS011;12242;50.952;4.678;2023-05-10T01:04:13;10.43;;;3.78;;
24034;SDS011;12242;50.952;4.678;2023-05-10T01:06:42;9.07;;;4.05;;
24034;SDS011;12242;50.952;4.678;2023-05-10T01:09:09;13.50;;;4.55;;
24034;SDS011;12242;50.952;4.678;2023-05-10T01:11:38;15.05;;;4.68;;
24034;SDS011;12242;50.952;4.678;2023-05-10T01:14:07;13.32;;;4.20;;
24034;SDS011;12242;50.952;4.678;2023-05-10T01:16:36;14.07;;;4.32;;
24034;SDS011;12242;50.952;4.678;2023-05-10T01:19:06;10.52;;;5.07;;
24034;SDS011;12242;50.952;4.678;2023-05-10T01:22:49;9.05;;;4.38;;
24034;SDS011;12242;50.952;4.678;2023-05-10T01:28:39;15.05;;;5.28;;
24034;SDS011;12242;50.952;4.678;2023-05-10T01:40:47;14.15;;;5.45;;
24034;SDS011;12242;50.952;4.678;2023-05-10T01:46:43;12.55;;;4.55;;
24034;SDS011;12242;50.952;4.678;2023-05-10T01:49:29;12.48;;;4.57;;
24034;SDS011;12242;50.952;4.678;2023-05-10T01:52:02;11.30;;;5.25;;
24034;SDS011;12242;50.952;4.678;2023-05-10T01:54:33;13.77;;;5.63;;
24034;SDS011;12242;50.952;4.678;2023-05-10T01:57:06;17.02;;;5.07;;
24034;SDS011;12242;50.952;4.678;2023-05-10T01:59:36;14.02;;;5.22;;
24034;SDS011;12242;50.952;4.678;2023-05-10T02:02:07;11.98;;;5.65;;
24034;SDS011;12242;50.952;4.678;2023-05-10T02:04:39;11.43;;;4.85;;
24034;SDS011;12242;50.952;4.678;2023-05-10T02:07:07;11.55;;;5.15;;
24034;SDS011;12242;50.952;4.678;2023-05-10T02:09:36;17.67;;;5.32;;
24034;SDS011;12242;50.952;4.678;2023-05-10T02:12:05;11.32;;;5.22;;
24034;SDS011;12242;50.952;4.678;2023-05-10T02:14:34;17.65;;;6.03;;
24034;SDS011;12242;50.952;4.678;2023-05-10T02:17:04;13.88;;;5.82;;
24034;SDS011;12242;50.952;4.678;2023-05-10T02:19:32;12.40;;;5.30;;
24034;SDS011;12242;50.952;4.678;2023-05-10T02:22:02;13.15;;;4.88;;
24034;SDS011;12242;50.952;4.678;2023-05-10T02:24:31;13.63;;;5.40;;
24034;SDS011;12242;50.952;4.678;2023-05-10T02:27:00;14.43;;;5.70;;
24034;SDS011;12242;50.952;4.678;2023-05-10T02:29:30;14.60;;;6.10;;
24034;SDS011;12242;50.952;4.678;2023-05-10T02:31:59;14.65;;;5.70;;
24034;SDS011;12242;50.952;4.678;2023-05-10T02:34:28;15.77;;;5.75;;
24034;SDS011;12242;50.952;4.678;2023-05-10T02:36:58;15.93;;;6.10;;
24034;SDS011;12242;50.952;4.678;2023-05-10T02:39:28;12.82;;;5.82;;
24034;SDS011;12242;50.952;4.678;2023-05-10T02:41:57;13.57;;;5.90;;
24034;SDS011;12242;50.952;4.678;2023-05-10T02:44:25;13.60;;;6.18;;
24034;SDS011;12242;50.952;4.678;2023-05-10T02:46:58;14.55;;;6.22;;
24034;SDS011;12242;50.952;4.678;2023-05-10T02:49:25;12.13;;;5.97;;
24034;SDS011;12242;50.952;4.678;2023-05-10T02:51:56;15.45;;;6.60;;
24034;SDS011;12242;50.952;4.678;2023-05-10T02:54:29;19.10;;;6.00;;
24034;SDS011;12242;50.952;4.678;2023-05-10T02:57:00;15.52;;;5.95;;
24034;SDS011;12242;50.952;4.678;2023-05-10T02:59:30;17.42;;;6.13;;
24034;SDS011;12242;50.952;4.678;2023-05-10T03:01:59;17.83;;;6.38;;
24034;SDS011;12242;50.952;4.678;2023-05-10T03:04:29;13.07;;;6.60;;
24034;SDS011;12242;50.952;4.678;2023-05-10T03:06:56;15.98;;;6.13;;
24034;SDS011;12242;50.952;4.678;2023-05-10T03:09:24;13.82;;;6.53;;
24034;SDS011;12242;50.952;4.678;2023-05-10T03:12:04;16.70;;;7.00;;
24034;SDS011;12242;50.952;4.678;2023-05-10T03:17:15;19.25;;;6.65;;
24034;SDS011;12242;50.952;4.678;2023-05-10T03:19:51;20.13;;;7.20;;
24034;SDS011;12242;50.952;4.678;2023-05-10T03:22:47;17.65;;;6.50;;
24034;SDS011;12242;50.952;4.678;2023-05-10T03:25:14;15.20;;;5.97;;
24034;SDS011;12242;50.952;4.678;2023-05-10T03:27:43;15.77;;;6.78;;
24034;SDS011;12242;50.952;4.678;2023-05-10T03:30:12;15.93;;;6.32;;
24034;SDS011;12242;50.952;4.678;2023-05-10T03:32:41;17.70;;;6.60;;
24034;SDS011;12242;50.952;4.678;2023-05-10T03:35:08;18.95;;;6.50;;
24034;SDS011;12242;50.952;4.678;2023-05-10T03:37:37;15.07;;;6.10;;
24034;SDS011;12242;50.952;4.678;2023-05-10T03:40:05;18.90;;;7.07;;
24034;SDS011;12242;50.952;4.678;2023-05-10T03:42:33;15.00;;;6.15;;
24034;SDS011;12242;50.952;4.678;2023-05-10T03:45:00;16.92;;;6.45;;
24034;SDS011;12242;50.952;4.678;2023-05-10T03:47:28;18.48;;;6.93;;
24034;SDS011;12242;50.952;4.678;2023-05-10T03:49:56;17.70;;;6.95;;
24034;SDS011;12242;50.952;4.678;2023-05-10T03:52:24;16.58;;;7.85;;
24034;SDS011;12242;50.952;4.678;2023-05-10T03:54:52;21.25;;;7.05;;
24034;SDS011;12242;50.952;4.678;2023-05-10T03:57:19;16.35;;;6.90;;
24034;SDS011;12242;50.952;4.678;2023-05-10T03:59:47;20.52;;;7.68;;
24034;SDS011;12242;50.952;4.678;2023-05-10T04:02:15;19.52;;;7.55;;
24034;SDS011;12242;50.952;4.678;2023-05-10T04:04:43;24.00;;;8.35;;
24034;SDS011;12242;50.952;4.678;2023-05-10T04:07:10;20.85;;;7.88;;
24034;SDS011;12242;50.952;4.678;2023-05-10T04:09:38;22.23;;;8.70;;
24034;SDS011;12242;50.952;4.678;2023-05-10T04:12:06;22.67;;;7.93;;
24034;SDS011;12242;50.952;4.678;2023-05-10T04:14:36;21.10;;;9.10;;
24034;SDS011;12242;50.952;4.678;2023-05-10T04:17:04;22.77;;;8.20;;
24034;SDS011;12242;50.952;4.678;2023-05-10T04:19:32;28.02;;;9.85;;
24034;SDS011;12242;50.952;4.678;2023-05-10T04:22:01;32.70;;;10.63;;
24034;SDS011;12242;50.952;4.678;2023-05-10T04:24:29;25.58;;;9.93;;
24034;SDS011;12242;50.952;4.678;2023-05-10T04:26:56;23.52;;;9.93;;
24034;SDS011;12242;50.952;4.678;2023-05-10T04:29:24;26.90;;;10.13;;
24034;SDS011;12242;50.952;4.678;2023-05-10T04:31:52;28.92;;;9.80;;
24034;SDS011;12242;50.952;4.678;2023-05-10T04:34:20;29.70;;;9.85;;
24034;SDS011;12242;50.952;4.678;2023-05-10T04:36:48;24.38;;;9.45;;
24034;SDS011;12242;50.952;4.678;2023-05-10T04:39:15;26.95;;;9.50;;
24034;SDS011;12242;50.952;4.678;2023-05-10T04:41:43;24.73;;;9.30;;
24034;SDS011;12242;50.952;4.678;2023-05-10T04:44:10;22.92;;;9.80;;
24034;SDS011;12242;50.952;4.678;2023-05-10T04:46:38;25.30;;;10.23;;
24034;SDS011;12242;50.952;4.678;2023-05-10T04:49:06;26.17;;;10.43;;
24034;SDS011;12242;50.952;4.678;2023-05-10T04:51:33;30.38;;;10.75;;
24034;SDS011;12242;50.952;4.678;2023-05-10T04:54:04;31.75;;;11.05;;
24034;SDS011;12242;50.952;4.678;2023-05-10T04:56:32;33.40;;;11.02;;
24034;SDS011;12242;50.952;4.678;2023-05-10T04:59:00;37.65;;;12.35;;
24034;SDS011;12242;50.952;4.678;2023-05-10T05:01:28;38.17;;;12.73;;
24034;SDS011;12242;50.952;4.678;2023-05-10T05:03:55;40.58;;;14.30;;
24034;SDS011;12242;50.952;4.678;2023-05-10T05:06:23;34.85;;;13.32;;
24034;SDS011;12242;50.952;4.678;2023-05-10T05:08:51;35.38;;;12.55;;
24034;SDS011;12242;50.952;4.678;2023-05-10T05:11:19;34.83;;;13.32;;
24034;SDS011;12242;50.952;4.678;2023-05-10T05:13:47;33.92;;;12.40;;
24034;SDS011;12242;50.952;4.678;2023-05-10T05:16:15;38.72;;;13.15;;
24034;SDS011;12242;50.952;4.678;2023-05-10T05:18:43;32.75;;;12.45;;
24034;SDS011;12242;50.952;4.678;2023-05-10T05:21:17;34.70;;;12.18;;
24034;SDS011;12242;50.952;4.678;2023-05-10T05:23:45;31.45;;;12.15;;
24034;SDS011;12242;50.952;4.678;2023-05-10T05:26:13;35.42;;;12.35;;
24034;SDS011;12242;50.952;4.678;2023-05-10T05:28:41;33.10;;;12.15;;
24034;SDS011;12242;50.952;4.678;2023-05-10T05:31:09;27.10;;;10.43;;
24034;SDS011;12242;50.952;4.678;2023-05-10T05:33:55;34.53;;;12.07;;
24034;SDS011;12242;50.952;4.678;2023-05-10T05:36:23;32.30;;;12.27;;
24034;SDS011;12242;50.952;4.678;2023-05-10T05:38:51;35.40;;;11.15;;
24034;SDS011;12242;50.952;4.678;2023-05-10T05:41:18;32.08;;;11.25;;
24034;SDS011;12242;50.952;4.678;2023-05-10T05:43:47;24.23;;;10.95;;
24034;SDS011;12242;50.952;4.678;2023-05-10T05:46:14;27.80;;;9.88;;
24034;SDS011;12242;50.952;4.678;2023-05-10T05:48:42;27.58;;;11.23;;
24034;SDS011;12242;50.952;4.678;2023-05-10T05:51:09;26.15;;;9.90;;
24034;SDS011;12242;50.952;4.678;2023-05-10T05:53:37;26.10;;;9.95;;
24034;SDS011;12242;50.952;4.678;2023-05-10T05:56:05;22.88;;;9.98;;
24034;SDS011;12242;50.952;4.678;2023-05-10T05:58:32;25.17;;;9.43;;
24034;SDS011;12242;50.952;4.678;2023-05-10T06:01:00;22.17;;;9.77;;
24034;SDS011;12242;50.952;4.678;2023-05-10T06:03:28;22.38;;;8.82;;
24034;SDS011;12242;50.952;4.678;2023-05-10T06:05:55;22.10;;;9.35;;
24034;SDS011;12242;50.952;4.678;2023-05-10T06:08:23;20.60;;;8.85;;
24034;SDS011;12242;50.952;4.678;2023-05-10T06:10:50;21.55;;;9.00;;
24034;SDS011;12242;50.952;4.678;2023-05-10T06:13:18;19.58;;;8.65;;
24034;SDS011;12242;50.952;4.678;2023-05-10T06:15:45;25.65;;;9.60;;
24034;SDS011;12242;50.952;4.678;2023-05-10T06:18:13;23.88;;;9.45;;
24034;SDS011;12242;50.952;4.678;2023-05-10T06:20:41;18.45;;;7.82;;
24034;SDS011;12242;50.952;4.678;2023-05-10T06:23:09;19.38;;;8.45;;
24034;SDS011;12242;50.952;4.678;2023-05-10T06:25:36;19.98;;;8.05;;
24034;SDS011;12242;50.952;4.678;2023-05-10T06:28:04;19.23;;;7.40;;
24034;SDS011;12242;50.952;4.678;2023-05-10T06:30:31;22.77;;;8.13;;
24034;SDS011;12242;50.952;4.678;2023-05-10T06:32:59;22.55;;;9.15;;
24034;SDS011;12242;50.952;4.678;2023-05-10T06:35:27;21.67;;;8.77;;
24034;SDS011;12242;50.952;4.678;2023-05-10T06:37:55;16.88;;;7.93;;
24034;SDS011;12242;50.952;4.678;2023-05-10T06:40:22;17.52;;;7.35;;
24034;SDS011;12242;50.952;4.678;2023-05-10T06:42:50;18.85;;;8.25;;
24034;SDS011;12242;50.952;4.678;2023-05-10T06:45:18;17.58;;;8.30;;
24034;SDS011;12242;50.952;4.678;2023-05-10T06:47:46;19.27;;;7.68;;
24034;SDS011;12242;50.952;4.678;2023-05-10T06:50:13;17.10;;;7.78;;
24034;SDS011;12242;50.952;4.678;2023-05-10T06:52:41;18.33;;;7.68;;
24034;SDS011;12242;50.952;4.678;2023-05-10T06:55:10;18.35;;;7.85;;
24034;SDS011;12242;50.952;4.678;2023-05-10T06:57:37;22.35;;;8.18;;
24034;SDS011;12242;50.952;4.678;2023-05-10T07:00:05;21.30;;;7.70;;
24034;SDS011;12242;50.952;4.678;2023-05-10T07:02:34;20.63;;;8.20;;
24034;SDS011;12242;50.952;4.678;2023-05-10T07:05:01;19.30;;;7.82;;
24034;SDS011;12242;50.952;4.678;2023-05-10T07:07:29;17.30;;;7.07;;
24034;SDS011;12242;50.952;4.678;2023-05-10T07:09:57;18.52;;;8.32;;
24034;SDS011;12242;50.952;4.678;2023-05-10T07:12:24;18.15;;;7.55;;
24034;SDS011;12242;50.952;4.678;2023-05-10T07:14:52;21.00;;;8.10;;
24034;SDS011;12242;50.952;4.678;2023-05-10T07:17:20;19.63;;;7.95;;
24034;SDS011;12242;50.952;4.678;2023-05-10T07:19:47;17.75;;;7.80;;
24034;SDS011;12242;50.952;4.678;2023-05-10T07:22:15;17.90;;;7.25;;
24034;SDS011;12242;50.952;4.678;2023-05-10T07:24:43;20.27;;;7.60;;
24034;SDS011;12242;50.952;4.678;2023-05-10T07:27:11;18.20;;;8.02;;
24034;SDS011;12242;50.952;4.678;2023-05-10T07:29:39;18.25;;;7.45;;
24034;SDS011;12242;50.952;4.678;2023-05-10T07:32:07;18.58;;;7.45;;
24034;SDS011;12242;50.952;4.678;2023-05-10T07:34:35;18.25;;;7.60;;
24034;SDS011;12242;50.952;4.678;2023-05-10T07:37:02;17.30;;;7.57;;
24034;SDS011;12242;50.952;4.678;2023-05-10T07:39:30;21.20;;;8.73;;
24034;SDS011;12242;50.952;4.678;2023-05-10T07:41:57;17.83;;;7.90;;
24034;SDS011;12242;50.952;4.678;2023-05-10T07:44:25;22.38;;;7.35;;
24034;SDS011;12242;50.952;4.678;2023-05-10T07:46:52;16.30;;;6.07;;
24034;SDS011;12242;50.952;4.678;2023-05-10T07:49:20;13.10;;;5.88;;
24034;SDS011;12242;50.952;4.678;2023-05-10T07:51:50;13.32;;;5.60;;
24034;SDS011;12242;50.952;4.678;2023-05-10T07:54:18;14.80;;;5.32;;
24034;SDS011;12242;50.952;4.678;2023-05-10T07:56:46;12.90;;;5.53;;
24034;SDS011;12242;50.952;4.678;2023-05-10T07:59:14;14.48;;;5.22;;
24034;SDS011;12242;50.952;4.678;2023-05-10T08:01:43;9.90;;;4.50;;
24034;SDS011;12242;50.952;4.678;2023-05-10T08:04:11;12.77;;;4.60;;
24034;SDS011;12242;50.952;4.678;2023-05-10T08:06:39;11.43;;;5.07;;
24034;SDS011;12242;50.952;4.678;2023-05-10T08:09:07;11.95;;;4.63;;
24034;SDS011;12242;50.952;4.678;2023-05-10T08:11:35;12.07;;;4.70;;
24034;SDS011;12242;50.952;4.678;2023-05-10T08:14:03;12.52;;;4.97;;
24034;SDS011;12242;50.952;4.678;2023-05-10T08:16:30;14.55;;;5.30;;
24034;SDS011;12242;50.952;4.678;2023-05-10T08:18:59;12.45;;;5.30;;
24034;SDS011;12242;50.952;4.678;2023-05-10T08:21:27;12.93;;;5.07;;
24034;SDS011;12242;50.952;4.678;2023-05-10T08:23:54;20.23;;;5.38;;
24034;SDS011;12242;50.952;4.678;2023-05-10T08:26:22;13.90;;;5.28;;
24034;SDS011;12242;50.952;4.678;2023-05-10T08:28:49;11.40;;;4.47;;
24034;SDS011;12242;50.952;4.678;2023-05-10T08:31:17;10.38;;;4.72;;
24034;SDS011;12242;50.952;4.678;2023-05-10T08:33:45;10.55;;;4.60;;
24034;SDS011;12242;50.952;4.678;2023-05-10T08:36:12;14.50;;;4.78;;
24034;SDS011;12242;50.952;4.678;2023-05-10T08:38:41;13.70;;;4.78;;
24034;SDS011;12242;50.952;4.678;2023-05-10T08:41:09;9.88;;;4.13;;
24034;SDS011;12242;50.952;4.678;2023-05-10T08:43:37;14.93;;;4.63;;
24034;SDS011;12242;50.952;4.678;2023-05-10T08:46:08;12.20;;;4.45;;
24034;SDS011;12242;50.952;4.678;2023-05-10T08:48:37;12.13;;;4.20;;
24034;SDS011;12242;50.952;4.678;2023-05-10T08:51:05;9.90;;;4.43;;
24034;SDS011;12242;50.952;4.678;2023-05-10T08:53:35;10.43;;;4.43;;
24034;SDS011;12242;50.952;4.678;2023-05-10T08:56:04;10.60;;;4.38;;
24034;SDS011;12242;50.952;4.678;2023-05-10T08:58:31;11.32;;;4.03;;
24034;SDS011;12242;50.952;4.678;2023-05-10T09:00:59;9.02;;;3.80;;
24034;SDS011;12242;50.952;4.678;2023-05-10T09:03:28;11.43;;;4.38;;
24034;SDS011;12242;50.952;4.678;2023-05-10T09:05:56;11.43;;;4.47;;
24034;SDS011;12242;50.952;4.678;2023-05-10T09:08:24;8.38;;;3.78;;
24034;SDS011;12242;50.952;4.678;2023-05-10T09:10:54;11.73;;;4.22;;
24034;SDS011;12242;50.952;4.678;2023-05-10T09:13:22;11.02;;;3.88;;
24034;SDS011;12242;50.952;4.678;2023-05-10T09:15:51;11.40;;;4.47;;
24034;SDS011;12242;50.952;4.678;2023-05-10T09:18:19;11.85;;;4.15;;
24034;SDS011;12242;50.952;4.678;2023-05-10T09:20:47;11.90;;;4.43;;
24034;SDS011;12242;50.952;4.678;2023-05-10T09:23:15;11.25;;;4.72;;
24034;SDS011;12242;50.952;4.678;2023-05-10T09:25:43;10.52;;;4.13;;
24034;SDS011;12242;50.952;4.678;2023-05-10T09:28:11;11.48;;;4.05;;
24034;SDS011;12242;50.952;4.678;2023-05-10T09:30:39;12.90;;;4.45;;
24034;SDS011;12242;50.952;4.678;2023-05-10T09:33:07;12.50;;;4.78;;
24034;SDS011;12242;50.952;4.678;2023-05-10T09:35:34;10.02;;;4.15;;
24034;SDS011;12242;50.952;4.678;2023-05-10T09:38:03;11.85;;;4.00;;
24034;SDS011;12242;50.952;4.678;2023-05-10T09:40:31;11.77;;;3.53;;
24034;SDS011;12242;50.952;4.678;2023-05-10T09:43:01;9.73;;;3.33;;
24034;SDS011;12242;50.952;4.678;2023-05-10T09:45:37;11.70;;;4.25;;
24034;SDS011;12242;50.952;4.678;2023-05-10T09:48:08;8.00;;;3.50;;
24034;SDS011;12242;50.952;4.678;2023-05-10T09:50:35;8.80;;;3.63;;
24034;SDS011;12242;50.952;4.678;2023-05-10T09:53:03;9.20;;;3.25;;
24034;SDS011;12242;50.952;4.678;2023-05-10T09:55:41;8.55;;;3.30;;
24034;SDS011;12242;50.952;4.678;2023-05-10T09:58:14;8.82;;;3.30;;
24034;SDS011;12242;50.952;4.678;2023-05-10T10:00:42;8.32;;;3.28;;
24034;SDS011;12242;50.952;4.678;2023-05-10T10:03:14;8.48;;;3.17;;
24034;SDS011;12242;50.952;4.678;2023-05-10T10:05:44;9.52;;;3.47;;
24034;SDS011;12242;50.952;4.678;2023-05-10T10:08:13;8.00;;;2.50;;
24034;SDS011;12242;50.952;4.678;2023-05-10T10:10:42;10.27;;;3.28;;
24034;SDS011;12242;50.952;4.678;2023-05-10T10:13:13;8.13;;;2.90;;
24034;SDS011;12242;50.952;4.678;2023-05-10T10:15:42;7.60;;;3.53;;
24034;SDS011;12242;50.952;4.678;2023-05-10T10:18:12;6.40;;;2.90;;
24034;SDS011;12242;50.952;4.678;2023-05-10T10:20:42;6.93;;;2.75;;
24034;SDS011;12242;50.952;4.678;2023-05-10T10:23:09;8.68;;;3.53;;
24034;SDS011;12242;50.952;4.678;2023-05-10T10:25:37;7.97;;;3.25;;
24034;SDS011;12242;50.952;4.678;2023-05-10T10:30:59;7.68;;;2.88;;
24034;SDS011;12242;50.952;4.678;2023-05-10T10:36:50;6.32;;;2.85;;
24034;SDS011;12242;50.952;4.678;2023-05-10T10:39:18;7.13;;;2.58;;
24034;SDS011;12242;50.952;4.678;2023-05-10T10:41:54;7.07;;;2.78;;
24034;SDS011;12242;50.952;4.678;2023-05-10T10:49:51;5.40;;;2.25;;
24034;SDS011;12242;50.952;4.678;2023-05-10T10:55:05;5.10;;;2.40;;
24034;SDS011;12242;50.952;4.678;2023-05-10T11:00:35;4.25;;;2.03;;
24034;SDS011;12242;50.952;4.678;2023-05-10T11:03:05;4.53;;;1.90;;
24034;SDS011;12242;50.952;4.678;2023-05-10T11:05:36;6.78;;;2.20;;
24034;SDS011;12242;50.952;4.678;2023-05-10T11:08:20;6.00;;;2.38;;
24034;SDS011;12242;50.952;4.678;2023-05-10T11:13:31;4.20;;;2.00;;
24034;SDS011;12242;50.952;4.678;2023-05-10T11:16:11;3.35;;;1.40;;
24034;SDS011;12242;50.952;4.678;2023-05-10T11:18:53;3.72;;;1.92;;
24034;SDS011;12242;50.952;4.678;2023-05-10T11:21:31;3.15;;;1.45;;
24034;SDS011;12242;50.952;4.678;2023-05-10T11:24:01;5.03;;;2.08;;
24034;SDS011;12242;50.952;4.678;2023-05-10T11:26:39;3.75;;;1.50;;
24034;SDS011;12242;50.952;4.678;2023-05-10T11:29:07;5.03;;;1.50;;
24034;SDS011;12242;50.952;4.678;2023-05-10T11:31:34;4.05;;;1.58;;
24034;SDS011;12242;50.952;4.678;2023-05-10T11:34:10;4.18;;;1.65;;
24034;SDS011;12242;50.952;4.678;2023-05-10T11:36:38;5.65;;;1.60;;
24034;SDS011;12242;50.952;4.678;2023-05-10T11:39:05;4.85;;;1.85;;
24034;SDS011;12242;50.952;4.678;2023-05-10T11:41:33;3.72;;;1.50;;
24034;SDS011;12242;50.952;4.678;2023-05-10T11:44:01;4.50;;;1.80;;
24034;SDS011;12242;50.952;4.678;2023-05-10T11:46:29;4.57;;;2.03;;
24034;SDS011;12242;50.952;4.678;2023-05-10T11:48:59;4.25;;;1.88;;
24034;SDS011;12242;50.952;4.678;2023-05-10T11:51:28;5.43;;;2.15;;
24034;SDS011;12242;50.952;4.678;2023-05-10T11:54:00;3.35;;;1.70;;
24034;SDS011;12242;50.952;4.678;2023-05-10T11:56:32;3.28;;;1.55;;
24034;SDS011;12242;50.952;4.678;2023-05-10T11:59:00;3.10;;;1.48;;
24034;SDS011;12242;50.952;4.678;2023-05-10T12:01:29;3.45;;;1.33;;
24034;SDS011;12242;50.952;4.678;2023-05-10T12:03:58;6.28;;;2.35;;
24034;SDS011;12242;50.952;4.678;2023-05-10T12:06:27;3.83;;;1.58;;
24034;SDS011;12242;50.952;4.678;2023-05-10T12:09:01;4.53;;;1.60;;
24034;SDS011;12242;50.952;4.678;2023-05-10T12:11:37;5.00;;;2.05;;
24034;SDS011;12242;50.952;4.678;2023-05-10T12:14:09;3.67;;;1.90;;
24034;SDS011;12242;50.952;4.678;2023-05-10T12:16:38;8.25;;;2.20;;
24034;SDS011;12242;50.952;4.678;2023-05-10T12:19:06;4.53;;;1.42;;
24034;SDS011;12242;50.952;4.678;2023-05-10T12:21:34;3.78;;;1.30;;
24034;SDS011;12242;50.952;4.678;2023-05-10T12:24:03;3.53;;;1.70;;
24034;SDS011;12242;50.952;4.678;2023-05-10T12:26:32;3.20;;;1.42;;
24034;SDS011;12242;50.952;4.678;2023-05-10T12:29:11;2.70;;;1.40;;
24034;SDS011;12242;50.952;4.678;2023-05-10T12:31:50;3.80;;;1.30;;
24034;SDS011;12242;50.952;4.678;2023-05-10T12:34:23;3.42;;;1.73;;
24034;SDS011;12242;50.952;4.678;2023-05-10T12:36:57;3.97;;;1.60;;
24034;SDS011;12242;50.952;4.678;2023-05-10T12:39:25;4.80;;;1.90;;
24034;SDS011;12242;50.952;4.678;2023-05-10T12:41:53;3.75;;;1.40;;
24034;SDS011;12242;50.952;4.678;2023-05-10T12:44:20;4.63;;;1.50;;
24034;SDS011;12242;50.952;4.678;2023-05-10T12:46:48;4.15;;;1.50;;
24034;SDS011;12242;50.952;4.678;2023-05-10T12:49:15;5.38;;;1.67;;
24034;SDS011;12242;50.952;4.678;2023-05-10T12:51:45;3.85;;;1.60;;
24034;SDS011;12242;50.952;4.678;2023-05-10T12:54:13;5.75;;;1.92;;
24034;SDS011;12242;50.952;4.678;2023-05-10T12:56:40;4.22;;;1.85;;
24034;SDS011;12242;50.952;4.678;2023-05-10T12:59:09;3.88;;;1.77;;
24034;SDS011;12242;50.952;4.678;2023-05-10T13:01:37;4.05;;;1.67;;
24034;SDS011;12242;50.952;4.678;2023-05-10T13:04:05;5.28;;;1.77;;
24034;SDS011;12242;50.952;4.678;2023-05-10T13:06:32;5.85;;;1.88;;
24034;SDS011;12242;50.952;4.678;2023-05-10T13:09:00;5.18;;;1.77;;
24034;SDS011;12242;50.952;4.678;2023-05-10T13:11:27;3.50;;;1.55;;
24034;SDS011;12242;50.952;4.678;2023-05-10T13:13:55;4.40;;;1.52;;
24034;SDS011;12242;50.952;4.678;2023-05-10T13:16:23;3.83;;;1.60;;
24034;SDS011;12242;50.952;4.678;2023-05-10T13:18:51;3.55;;;1.58;;
24034;SDS011;12242;50.952;4.678;2023-05-10T13:21:19;5.63;;;1.98;;
24034;SDS011;12242;50.952;4.678;2023-05-10T13:23:46;3.78;;;1.92;;
24034;SDS011;12242;50.952;4.678;2023-05-10T13:26:14;2.88;;;1.20;;
24034;SDS011;12242;50.952;4.678;2023-05-10T13:28:43;5.05;;;1.85;;
24034;SDS011;12242;50.952;4.678;2023-05-10T13:31:12;4.55;;;2.17;;
24034;SDS011;12242;50.952;4.678;2023-05-10T13:33:40;3.83;;;1.58;;
24034;SDS011;12242;50.952;4.678;2023-05-10T13:36:09;6.38;;;2.38;;
24034;SDS011;12242;50.952;4.678;2023-05-10T13:38:37;5.40;;;1.70;;
24034;SDS011;12242;50.952;4.678;2023-05-10T13:41:05;5.00;;;1.65;;
24034;SDS011;12242;50.952;4.678;2023-05-10T13:43:33;5.60;;;1.88;;
24034;SDS011;12242;50.952;4.678;2023-05-10T13:46:01;5.00;;;1.88;;
24034;SDS011;12242;50.952;4.678;2023-05-10T13:48:29;4.82;;;2.00;;
24034;SDS011;12242;50.952;4.678;2023-05-10T13:50:57;5.05;;;1.90;;
24034;SDS011;12242;50.952;4.678;2023-05-10T13:53:24;4.47;;;1.98;;
24034;SDS011;12242;50.952;4.678;2023-05-10T13:55:52;4.65;;;1.80;;
24034;SDS011;12242;50.952;4.678;2023-05-10T13:58:20;4.78;;;2.13;;
24034;SDS011;12242;50.952;4.678;2023-05-10T14:00:48;5.78;;;2.42;;
24034;SDS011;12242;50.952;4.678;2023-05-10T14:03:16;4.90;;;2.08;;
24034;SDS011;12242;50.952;4.678;2023-05-10T14:05:43;6.85;;;1.98;;
24034;SDS011;12242;50.952;4.678;2023-05-10T14:08:12;4.60;;;2.03;;
24034;SDS011;12242;50.952;4.678;2023-05-10T14:10:40;5.40;;;2.10;;
24034;SDS011;12242;50.952;4.678;2023-05-10T14:13:07;5.70;;;2.17;;
24034;SDS011;12242;50.952;4.678;2023-05-10T14:15:35;5.95;;;2.63;;
24034;SDS011;12242;50.952;4.678;2023-05-10T14:18:03;6.22;;;2.45;;
24034;SDS011;12242;50.952;4.678;2023-05-10T14:20:31;7.68;;;2.58;;
24034;SDS011;12242;50.952;4.678;2023-05-10T14:23:00;4.78;;;2.13;;
24034;SDS011;12242;50.952;4.678;2023-05-10T14:25:30;5.07;;;2.42;;
24034;SDS011;12242;50.952;4.678;2023-05-10T14:27:57;6.60;;;2.45;;
24034;SDS011;12242;50.952;4.678;2023-05-10T14:30:25;4.53;;;2.15;;
24034;SDS011;12242;50.952;4.678;2023-05-10T14:32:53;6.60;;;2.28;;
24034;SDS011;12242;50.952;4.678;2023-05-10T14:35:21;6.93;;;2.20;;
24034;SDS011;12242;50.952;4.678;2023-05-10T14:37:49;8.85;;;2.15;;
24034;SDS011;12242;50.952;4.678;2023-05-10T14:40:16;6.95;;;2.45;;
24034;SDS011;12242;50.952;4.678;2023-05-10T14:42:44;5.18;;;2.30;;
24034;SDS011;12242;50.952;4.678;2023-05-10T14:45:12;6.00;;;2.28;;
24034;SDS011;12242;50.952;4.678;2023-05-10T14:47:39;5.28;;;2.50;;
24034;SDS011;12242;50.952;4.678;2023-05-10T14:50:07;5.20;;;2.30;;
24034;SDS011;12242;50.952;4.678;2023-05-10T14:52:35;6.75;;;2.60;;
24034;SDS011;12242;50.952;4.678;2023-05-10T14:55:03;8.50;;;2.97;;
24034;SDS011;12242;50.952;4.678;2023-05-10T14:57:31;8.05;;;2.47;;
24034;SDS011;12242;50.952;4.678;2023-05-10T14:59:59;7.00;;;3.10;;
24034;SDS011;12242;50.952;4.678;2023-05-10T15:02:27;8.70;;;2.70;;
24034;SDS011;12242;50.952;4.678;2023-05-10T15:04:55;5.55;;;2.88;;
24034;SDS011;12242;50.952;4.678;2023-05-10T15:07:24;9.25;;;3.40;;
24034;SDS011;12242;50.952;4.678;2023-05-10T15:09:52;10.30;;;3.33;;
24034;SDS011;12242;50.952;4.678;2023-05-10T15:12:20;7.72;;;3.50;;
24034;SDS011;12242;50.952;4.678;2023-05-10T15:14:48;8.07;;;3.55;;
24034;SDS011;12242;50.952;4.678;2023-05-10T15:17:16;10.35;;;3.60;;
24034;SDS011;12242;50.952;4.678;2023-05-10T15:19:43;9.23;;;4.07;;
24034;SDS011;12242;50.952;4.678;2023-05-10T15:22:11;9.50;;;3.92;;
24034;SDS011;12242;50.952;4.678;2023-05-10T15:24:38;9.13;;;4.20;;
24034;SDS011;12242;50.952;4.678;2023-05-10T15:27:06;10.13;;;4.35;;
24034;SDS011;12242;50.952;4.678;2023-05-10T15:29:33;9.50;;;4.05;;
24034;SDS011;12242;50.952;4.678;2023-05-10T15:32:02;10.30;;;4.88;;
24034;SDS011;12242;50.952;4.678;2023-05-10T15:34:30;9.80;;;4.43;;
24034;SDS011;12242;50.952;4.678;2023-05-10T15:37:01;10.90;;;4.32;;
24034;SDS011;12242;50.952;4.678;2023-05-10T15:39:29;11.75;;;5.20;;
24034;SDS011;12242;50.952;4.678;2023-05-10T15:41:57;9.52;;;4.05;;